createdAt,value
2018-11-05T00:02:19.533Z,9.45
2018-11-05T00:04:48.308Z,9.44
2018-11-05T00:07:15.968Z,9.48
2018-11-05T00:09:43.336Z,9.44
2018-11-05T00:12:10.800Z,9.41
2018-11-05T00:14:38.169Z,9.31
2018-11-05T00:17:07.908Z,9.36
2018-11-05T00:19:36.038Z,9.41
2018-11-05T00:22:05.446Z,9.41
2018-11-05T00:24:32.867Z,9.37
2018-11-05T00:27:00.233Z,9.29
2018-11-05T00:29:27.592Z,9.33
2018-11-05T00:31:54.975Z,9.36
2018-11-05T00:34:24.674Z,9.38
2018-11-05T00:36:52.120Z,9.12
2018-11-05T00:39:19.539Z,9.27
2018-11-05T00:41:48.817Z,9.28
2018-11-05T00:44:17.761Z,9.27
2018-11-05T00:46:48.905Z,9.29
2018-11-05T00:49:17.958Z,9.34
2018-11-05T00:51:45.907Z,9.37
2018-11-05T00:54:13.730Z,9.45
2018-11-05T00:56:41.120Z,9.45
2018-11-05T00:59:11.500Z,9.44
2018-11-05T01:01:38.999Z,9.38
2018-11-05T01:04:06.832Z,9.37
2018-11-05T01:06:34.367Z,9.38
2018-11-05T01:09:01.971Z,9.35
2018-11-05T01:11:30.051Z,9.22
2018-11-05T01:13:57.582Z,9.27
2018-11-05T01:16:25.109Z,9.23
2018-11-05T01:18:55.577Z,9.24
2018-11-05T01:21:24.174Z,9.21
2018-11-05T01:23:51.733Z,9.13
2018-11-05T01:26:21.432Z,9.16
2018-11-05T01:28:51.059Z,9.13
2018-11-05T01:31:18.406Z,9.12
2018-11-05T01:33:45.945Z,9.11
2018-11-05T01:36:13.319Z,9.03
2018-11-05T01:38:41.698Z,9.02
2018-11-05T01:41:09.167Z,9.03
2018-11-05T01:43:36.690Z,8.95
2018-11-05T01:46:04.071Z,8.97
2018-11-05T01:48:31.613Z,8.99
2018-11-05T01:51:00.504Z,8.97
2018-11-05T01:53:29.938Z,8.95
2018-11-05T01:55:57.470Z,8.99
2018-11-05T01:58:24.924Z,9.02
2018-11-05T02:00:53.389Z,9.04
2018-11-05T02:03:21.965Z,9.04
2018-11-05T02:05:49.315Z,9.07
2018-11-05T02:08:16.701Z,9.07
2018-11-05T02:10:44.103Z,9.02
2018-11-05T02:13:12.258Z,9.02
2018-11-05T02:15:40.226Z,8.95
2018-11-05T02:18:07.512Z,8.93
2018-11-05T02:20:34.923Z,8.98
2018-11-05T02:23:03.543Z,9.00
2018-11-05T02:25:33.180Z,8.99
2018-11-05T02:28:00.832Z,8.91
2018-11-05T02:30:28.500Z,8.91
2018-11-05T02:32:55.888Z,8.88
2018-11-05T02:35:23.089Z,8.88
2018-11-05T02:39:20.977Z,8.86
2018-11-05T02:41:48.360Z,8.80
2018-11-05T02:44:17.103Z,8.74
2018-11-05T02:46:46.271Z,8.68
2018-11-05T02:49:19.507Z,8.68
2018-11-05T02:51:46.896Z,8.63
2018-11-05T02:54:14.214Z,8.54
2018-11-05T02:56:41.632Z,8.61
2018-11-05T02:59:08.930Z,8.67
2018-11-05T03:01:43.386Z,8.66
2018-11-05T03:04:10.873Z,8.55
2018-11-05T03:06:39.737Z,8.55
2018-11-05T03:09:11.854Z,8.53
2018-11-05T03:11:41.650Z,8.51
2018-11-05T03:14:09.379Z,8.57
2018-11-05T03:16:37.218Z,8.58
2018-11-05T03:19:04.987Z,8.56
2018-11-05T03:21:32.882Z,8.51
2018-11-05T03:24:03.084Z,8.45
2018-11-05T03:26:31.515Z,8.42
2018-11-05T03:29:00.080Z,8.34
2018-11-05T03:31:27.675Z,8.38
2018-11-05T03:33:56.460Z,8.41
2018-11-05T03:36:25.126Z,8.41
2018-11-05T03:38:52.522Z,8.34
2018-11-05T03:41:20.135Z,8.29
2018-11-05T03:43:47.515Z,8.32
2018-11-05T03:46:14.931Z,8.31
2018-11-05T03:48:44.488Z,8.34
2018-11-05T03:51:13.651Z,8.25
2018-11-05T03:53:41.108Z,8.23
2018-11-05T03:56:08.661Z,8.18
2018-11-05T03:58:36.530Z,8.23
2018-11-05T04:01:04.082Z,8.22
2018-11-05T04:03:33.824Z,8.22
2018-11-05T04:06:01.010Z,8.18
2018-11-05T04:08:28.335Z,8.22
2018-11-05T04:10:55.782Z,8.17
2018-11-05T04:13:23.181Z,8.18
2018-11-05T04:15:51.821Z,8.09
2018-11-05T04:18:19.050Z,8.09
2018-11-05T04:20:46.511Z,8.11
2018-11-05T04:23:13.844Z,7.94
2018-11-05T04:25:41.419Z,8.00
2018-11-05T04:28:11.128Z,8.07
2018-11-05T04:30:38.430Z,8.03
2018-11-05T04:33:06.422Z,8.01
2018-11-05T04:35:34.059Z,8.05
2018-11-05T04:38:01.770Z,8.05
2018-11-05T04:40:29.942Z,8.16
2018-11-05T04:42:57.258Z,8.04
2018-11-05T04:45:24.690Z,8.17
2018-11-05T04:47:52.983Z,8.18
2018-11-05T04:50:21.365Z,8.09
2018-11-05T04:52:48.971Z,8.10
2018-11-05T04:55:17.048Z,8.06
2018-11-05T04:57:45.385Z,8.08
2018-11-05T05:00:17.879Z,8.00
2018-11-05T05:02:45.304Z,7.95
2018-11-05T05:05:14.003Z,7.88
2018-11-05T05:07:41.507Z,7.86
2018-11-05T05:10:09.353Z,7.84
2018-11-05T05:12:38.365Z,7.80
2018-11-05T05:15:10.674Z,7.73
2018-11-05T05:17:39.449Z,7.59
2018-11-05T05:20:11.832Z,7.33
2018-11-05T05:22:39.330Z,7.38
2018-11-05T05:25:06.841Z,7.44
2018-11-05T05:27:34.268Z,7.51
2018-11-05T05:30:01.555Z,7.42
2018-11-05T05:32:28.939Z,7.46
2018-11-05T05:36:28.767Z,7.47
2018-11-05T05:42:29.283Z,7.56
2018-11-05T05:44:56.866Z,7.51
2018-11-05T05:47:25.671Z,7.41
2018-11-05T05:49:54.866Z,7.45
2018-11-05T05:52:24.539Z,7.42
2018-11-05T05:54:54.823Z,7.27
2018-11-05T05:57:23.987Z,7.05
2018-11-05T05:59:51.375Z,6.85
2018-11-05T06:02:20.811Z,6.82
2018-11-05T06:04:48.436Z,6.76
2018-11-05T06:07:15.839Z,6.69
2018-11-05T06:09:43.411Z,6.71
2018-11-05T06:12:11.099Z,6.74
2018-11-05T06:14:40.195Z,6.79
2018-11-05T06:17:07.553Z,6.88
2018-11-05T06:19:34.854Z,6.90
2018-11-05T06:22:06.061Z,6.84
2018-11-05T06:24:33.828Z,6.94
2018-11-05T06:27:02.124Z,7.12
2018-11-05T06:29:29.586Z,7.24
2018-11-05T06:31:57.109Z,7.29
2018-11-05T06:34:24.866Z,7.23
2018-11-05T06:36:52.419Z,7.34
2018-11-05T06:39:21.757Z,7.39
2018-11-05T06:41:49.741Z,7.41
2018-11-05T06:44:17.130Z,7.36
2018-11-05T06:46:44.363Z,7.44
2018-11-05T06:49:14.028Z,7.54
2018-11-05T06:51:42.704Z,7.62
2018-11-05T06:54:11.953Z,7.64
2018-11-05T06:56:40.747Z,7.63
2018-11-05T06:59:08.069Z,7.67
2018-11-05T07:01:35.803Z,7.59
2018-11-05T07:04:03.184Z,7.51
2018-11-05T07:06:30.708Z,7.27
2018-11-05T07:08:59.699Z,7.23
2018-11-05T07:11:27.183Z,7.28
2018-11-05T07:13:54.535Z,7.44
2018-11-05T07:16:24.728Z,7.45
2018-11-05T07:18:53.657Z,7.36
2018-11-05T07:21:21.572Z,7.33
2018-11-05T07:23:48.860Z,7.48
2018-11-05T07:26:16.245Z,7.28
2018-11-05T07:28:45.701Z,7.49
2018-11-05T07:31:16.024Z,7.74
2018-11-05T07:33:43.429Z,8.20
2018-11-05T07:36:11.736Z,8.72
2018-11-05T07:38:39.113Z,9.44
2018-11-05T07:41:06.454Z,10.19
2018-11-05T07:43:36.628Z,10.77
2018-11-05T07:46:05.060Z,10.66
2018-11-05T07:48:32.770Z,10.17
2018-11-05T07:51:00.454Z,9.60
2018-11-05T07:53:29.331Z,9.03
2018-11-05T07:55:58.202Z,8.69
2018-11-05T07:58:25.594Z,8.49
2018-11-05T08:00:55.012Z,8.43
2018-11-05T08:03:22.497Z,8.33
2018-11-05T08:05:49.886Z,8.34
2018-11-05T08:08:18.358Z,8.28
2018-11-05T08:10:47.607Z,7.98
2018-11-05T08:13:15.120Z,7.71
2018-11-05T08:15:44.676Z,7.58
2018-11-05T08:18:14.192Z,7.52
2018-11-05T08:20:41.799Z,7.52
2018-11-05T08:23:10.354Z,7.54
2018-11-05T08:25:39.092Z,7.49
2018-11-05T08:28:07.229Z,7.43
2018-11-05T08:30:35.580Z,7.62
2018-11-05T08:33:04.180Z,7.88
2018-11-05T08:35:33.276Z,7.89
2018-11-05T08:38:00.770Z,8.08
2018-11-05T08:40:28.820Z,8.11
2018-11-05T08:42:58.638Z,8.04
2018-11-05T08:45:28.065Z,8.11
2018-11-05T08:47:57.600Z,8.23
2018-11-05T08:50:27.503Z,8.37
2018-11-05T08:52:54.803Z,8.47
2018-11-05T08:55:24.871Z,8.55
2018-11-05T08:57:52.256Z,8.72
2018-11-05T09:00:25.345Z,8.86
2018-11-05T09:02:55.141Z,9.02
2018-11-05T09:05:24.165Z,9.06
2018-11-05T09:07:53.061Z,8.90
2018-11-05T09:10:20.818Z,8.86
2018-11-05T09:12:50.210Z,8.87
2018-11-05T09:15:18.904Z,8.79
2018-11-05T09:17:46.666Z,8.82
2018-11-05T09:20:15.215Z,8.53
2018-11-05T09:22:44.380Z,8.46
2018-11-05T09:25:12.667Z,8.39
2018-11-05T09:27:40.078Z,8.57
2018-11-05T09:30:11.459Z,8.74
2018-11-05T09:32:39.845Z,9.11
2018-11-05T09:35:07.874Z,9.34
2018-11-05T09:37:35.303Z,9.52
2018-11-05T09:40:04.710Z,9.63
2018-11-05T09:42:32.203Z,9.77
2018-11-05T09:44:59.637Z,9.75
2018-11-05T09:47:27.005Z,9.85
2018-11-05T09:49:56.480Z,10.09
2018-11-05T09:52:25.488Z,10.50
2018-11-05T09:54:52.961Z,11.16
2018-11-05T09:57:20.359Z,11.31
2018-11-05T09:59:48.620Z,11.55
2018-11-05T10:02:17.315Z,11.58
2018-11-05T10:04:45.100Z,11.67
2018-11-05T10:07:13.715Z,11.55
2018-11-05T10:09:42.116Z,11.47
2018-11-05T10:12:11.630Z,11.31
2018-11-05T10:14:41.954Z,11.59
2018-11-05T10:17:12.591Z,11.95
2018-11-05T10:19:41.522Z,12.11
2018-11-05T10:22:11.072Z,12.26
2018-11-05T10:24:41.099Z,12.21
2018-11-05T10:27:08.411Z,12.27
2018-11-05T10:29:36.591Z,12.29
2018-11-05T10:32:05.561Z,12.25
2018-11-05T10:34:38.986Z,12.45
2018-11-05T10:37:08.267Z,12.42
2018-11-05T10:39:38.066Z,12.47
2018-11-05T10:42:05.605Z,12.57
2018-11-05T10:44:36.044Z,12.64
2018-11-05T10:47:03.939Z,12.82
2018-11-05T10:49:32.101Z,12.96
2018-11-05T10:52:04.396Z,12.82
2018-11-05T10:54:32.016Z,12.82
2018-11-05T10:56:59.959Z,12.83
2018-11-05T10:59:27.306Z,13.25
2018-11-05T11:02:03.155Z,13.96
2018-11-05T11:04:31.939Z,14.84
2018-11-05T11:06:59.638Z,16.38
2018-11-05T11:09:28.711Z,17.25
2018-11-05T11:11:58.723Z,18.27
2018-11-05T11:14:26.116Z,18.17
2018-11-05T11:16:55.198Z,18.37
2018-11-05T11:19:22.738Z,18.58
2018-11-05T11:21:50.826Z,19.30
2018-11-05T11:24:19.234Z,20.28
2018-11-05T11:26:49.759Z,19.85
2018-11-05T11:29:18.165Z,20.47
2018-11-05T11:31:45.408Z,21.14
2018-11-05T11:34:12.938Z,20.33
2018-11-05T11:36:40.594Z,20.70
2018-11-05T11:39:10.678Z,21.24
2018-11-05T11:41:40.831Z,20.87
2018-11-05T11:44:09.283Z,20.09
2018-11-05T11:46:37.154Z,20.02
2018-11-05T11:49:05.051Z,19.85
2018-11-05T11:51:33.963Z,19.99
2018-11-05T11:54:02.214Z,19.48
2018-11-05T11:56:29.669Z,19.61
2018-11-05T11:58:57.846Z,20.25
2018-11-05T12:01:27.254Z,19.64
2018-11-05T12:03:56.422Z,18.82
2018-11-05T12:06:23.829Z,18.62
2018-11-05T12:08:51.530Z,17.88
2018-11-05T12:11:18.987Z,17.60
2018-11-05T12:13:46.987Z,17.83
2018-11-05T12:16:14.517Z,18.01
2018-11-05T12:18:44.226Z,17.94
2018-11-05T12:21:11.619Z,17.67
2018-11-05T12:23:40.693Z,17.98
2018-11-05T12:26:08.068Z,18.22
2018-11-05T12:28:36.708Z,18.63
2018-11-05T12:31:06.770Z,19.73
2018-11-05T12:33:36.484Z,20.67
2018-11-05T12:36:04.638Z,21.11
2018-11-05T12:38:32.305Z,21.45
2018-11-05T12:41:02.067Z,21.58
2018-11-05T12:43:29.433Z,20.91
2018-11-05T12:45:56.817Z,19.73
2018-11-05T12:48:25.954Z,20.14
2018-11-05T12:50:54.663Z,20.11
2018-11-05T12:53:22.281Z,20.42
2018-11-05T12:55:50.364Z,20.55
2018-11-05T12:58:17.877Z,20.14
2018-11-05T13:00:45.257Z,20.01
2018-11-05T13:03:12.593Z,19.58
2018-11-05T13:05:39.994Z,19.45
2018-11-05T13:08:12.985Z,19.31
2018-11-05T13:10:40.660Z,19.52
2018-11-05T13:13:08.445Z,20.36
2018-11-05T13:15:36.030Z,20.85
2018-11-05T13:18:04.549Z,21.19
2018-11-05T13:20:32.406Z,21.78
2018-11-05T13:23:01.794Z,21.42
2018-11-05T13:25:31.264Z,21.36
2018-11-05T13:28:00.191Z,21.37
2018-11-05T13:30:28.758Z,21.80
2018-11-05T13:32:56.208Z,21.03
2018-11-05T13:35:24.095Z,21.71
2018-11-05T13:37:53.040Z,22.18
2018-11-05T13:40:22.922Z,22.55
2018-11-05T13:42:52.621Z,22.66
2018-11-05T13:45:21.229Z,21.33
2018-11-05T13:47:49.932Z,21.52
2018-11-05T13:50:18.204Z,22.06
2018-11-05T13:52:45.304Z,22.51
2018-11-05T13:55:15.219Z,22.42
2018-11-05T13:57:45.033Z,22.58
2018-11-05T14:00:15.576Z,22.82
2018-11-05T14:02:44.874Z,23.12
2018-11-05T14:05:12.964Z,23.29
2018-11-05T14:07:40.455Z,23.33
2018-11-05T14:10:11.503Z,23.20
2018-11-05T14:12:40.295Z,22.52
2018-11-05T14:15:08.591Z,22.67
2018-11-05T14:17:36.654Z,22.54
2018-11-05T14:20:04.729Z,22.02
2018-11-05T14:22:32.149Z,21.66
2018-11-05T14:24:59.871Z,22.00
2018-11-05T14:27:30.617Z,22.33
2018-11-05T14:30:00.503Z,22.26
2018-11-05T14:32:27.534Z,22.51
2018-11-05T14:37:16.784Z,21.65
2018-11-05T14:39:44.132Z,21.46
2018-11-05T14:42:12.072Z,21.81
2018-11-05T14:44:39.474Z,22.01
2018-11-05T14:47:08.477Z,22.16
2018-11-05T14:49:37.928Z,22.26
2018-11-05T14:52:05.949Z,22.39
2018-11-05T14:54:35.095Z,22.52
2018-11-05T14:57:05.744Z,22.52
2018-11-05T14:59:33.371Z,22.57
2018-11-05T15:02:07.193Z,22.43
2018-11-05T15:04:35.926Z,22.55
2018-11-05T15:07:03.616Z,22.48
2018-11-05T15:09:31.009Z,21.98
2018-11-05T15:12:00.256Z,21.58
2018-11-05T15:14:28.151Z,21.24
2018-11-05T15:16:58.616Z,21.01
2018-11-05T15:19:28.133Z,21.01
2018-11-05T15:21:55.253Z,21.15
2018-11-05T15:24:24.715Z,21.28
2018-11-05T15:26:53.373Z,21.34
2018-11-05T15:29:21.017Z,21.21
2018-11-05T15:31:48.696Z,20.78
2018-11-05T15:34:17.250Z,20.55
2018-11-05T15:36:46.908Z,20.39
2018-11-05T15:39:14.953Z,20.20
2018-11-05T15:41:42.840Z,20.12
2018-11-05T15:44:10.164Z,19.85
2018-11-05T15:46:38.222Z,19.45
2018-11-05T15:49:08.886Z,19.14
2018-11-05T15:51:37.682Z,18.66
2018-11-05T15:54:05.592Z,18.15
2018-11-05T15:56:33.693Z,17.68
2018-11-05T15:59:01.597Z,17.45
2018-11-05T16:01:31.044Z,17.19
2018-11-05T16:03:58.538Z,16.90
2018-11-05T16:06:25.876Z,16.56
2018-11-05T16:08:55.464Z,16.30
2018-11-05T16:11:23.067Z,15.97
2018-11-05T16:13:52.492Z,15.94
2018-11-05T16:16:20.825Z,15.80
2018-11-05T16:18:48.653Z,15.61
2018-11-05T16:21:16.977Z,15.45
2018-11-05T16:23:44.607Z,15.18
2018-11-05T16:26:14.310Z,15.06
2018-11-05T16:28:44.040Z,14.97
2018-11-05T16:31:13.492Z,14.86
2018-11-05T16:33:44.049Z,14.68
2018-11-05T16:36:11.911Z,14.67
2018-11-05T16:38:39.468Z,14.48
2018-11-05T16:41:09.897Z,14.34
2018-11-05T16:43:37.284Z,14.28
2018-11-05T16:46:05.914Z,14.23
2018-11-05T16:48:33.167Z,14.11
2018-11-05T16:51:00.744Z,14.12
2018-11-05T16:53:28.039Z,14.04
2018-11-05T16:55:58.538Z,13.93
2018-11-05T16:58:26.035Z,13.90
2018-11-05T17:00:53.485Z,13.88
2018-11-05T17:03:21.380Z,13.77
2018-11-05T17:05:49.767Z,13.61
2018-11-05T17:08:17.443Z,13.64
2018-11-05T17:10:44.921Z,13.63
2018-11-05T17:13:12.491Z,13.54
2018-11-05T17:15:39.827Z,13.45
2018-11-05T17:18:07.234Z,13.30
2018-11-05T17:20:34.886Z,13.23
2018-11-05T17:23:02.414Z,13.25
2018-11-05T17:25:30.523Z,13.17
2018-11-05T17:28:00.217Z,13.12
2018-11-05T17:30:31.084Z,13.04
2018-11-05T17:32:58.497Z,12.93
2018-11-05T17:35:27.573Z,12.82
2018-11-05T17:37:54.941Z,12.76
2018-11-05T17:40:23.185Z,12.68
2018-11-05T17:42:51.324Z,12.51
2018-11-05T17:45:19.884Z,12.38
2018-11-05T17:47:49.720Z,12.30
2018-11-05T17:50:19.482Z,12.23
2018-11-05T17:52:48.121Z,12.10
2018-11-05T17:55:17.642Z,12.03
2018-11-05T17:57:48.555Z,11.90
2018-11-05T18:00:19.198Z,11.89
2018-11-05T18:02:46.587Z,11.85
2018-11-05T18:05:14.324Z,11.88
2018-11-05T18:07:43.374Z,11.82
2018-11-05T18:10:10.865Z,11.77
2018-11-05T18:12:38.356Z,11.73
2018-11-05T18:15:09.198Z,11.82
2018-11-05T18:17:39.937Z,11.76
2018-11-05T18:20:08.496Z,11.68
2018-11-05T18:22:37.589Z,11.71
2018-11-05T18:25:06.471Z,11.67
2018-11-05T18:27:36.282Z,11.66
2018-11-05T18:30:04.559Z,11.59
2018-11-05T18:32:32.044Z,11.55
2018-11-05T18:34:59.824Z,11.56
2018-11-05T18:37:28.072Z,11.48
2018-11-05T18:39:57.055Z,11.41
2018-11-05T18:42:24.770Z,11.32
2018-11-05T18:44:52.903Z,11.32
2018-11-05T18:47:21.508Z,11.28
2018-11-05T18:49:50.331Z,11.20
2018-11-05T18:52:18.347Z,11.17
2018-11-05T18:54:46.903Z,11.03
2018-11-05T18:57:14.456Z,10.98
2018-11-05T18:59:42.655Z,10.96
2018-11-05T19:02:16.281Z,10.86
2018-11-05T19:04:45.227Z,10.90
2018-11-05T19:07:13.875Z,10.86
2018-11-05T19:09:41.459Z,10.82
2018-11-05T19:12:09.667Z,10.75
2018-11-05T19:14:39.203Z,10.74
2018-11-05T19:17:06.843Z,10.68
2018-11-05T19:19:34.301Z,10.65
2018-11-05T19:22:01.673Z,10.60
2018-11-05T19:24:29.347Z,10.66
2018-11-05T19:26:56.571Z,10.65
2018-11-05T19:29:24.050Z,10.62
2018-11-05T19:31:51.688Z,10.54
2018-11-05T19:34:20.712Z,10.50
2018-11-05T19:36:49.962Z,10.45
2018-11-05T19:39:17.285Z,10.48
2018-11-05T19:41:47.363Z,10.38
2018-11-05T19:44:14.820Z,10.27
2018-11-05T19:46:42.287Z,10.23
2018-11-05T19:49:13.099Z,10.20
2018-11-05T19:51:41.485Z,10.17
2018-11-05T19:54:09.506Z,10.19
2018-11-05T19:56:37.943Z,10.14
2018-11-05T19:59:06.113Z,10.08
2018-11-05T20:01:35.817Z,10.06
2018-11-05T20:04:03.666Z,10.07
2018-11-05T20:06:32.627Z,10.06
2018-11-05T20:09:02.806Z,10.02
2018-11-05T20:11:30.623Z,10.02
2018-11-05T20:13:57.946Z,10.01
2018-11-05T20:16:28.686Z,9.96
2018-11-05T20:18:56.121Z,9.96
2018-11-05T20:21:25.299Z,9.91
2018-11-05T20:23:52.895Z,9.81
2018-11-05T20:26:20.797Z,9.73
2018-11-05T20:28:48.304Z,9.71
2018-11-05T20:31:17.430Z,9.71
2018-11-05T20:33:45.642Z,9.71
2018-11-05T20:36:14.376Z,9.67
2018-11-05T20:38:41.770Z,9.65
2018-11-05T20:41:09.187Z,9.54
2018-11-05T20:43:37.563Z,9.53
2018-11-05T20:46:05.181Z,9.54
2018-11-05T20:48:32.863Z,9.52
2018-11-05T20:51:00.215Z,9.47
2018-11-05T20:53:27.645Z,9.40
2018-11-05T20:55:55.325Z,9.40
2018-11-05T20:58:24.658Z,9.33
2018-11-05T21:00:52.070Z,9.41
2018-11-05T21:03:20.453Z,9.37
2018-11-05T21:05:48.063Z,9.39
2018-11-05T21:08:16.034Z,9.35
2018-11-05T21:10:43.551Z,9.36
2018-11-05T21:13:11.217Z,9.34
2018-11-05T21:15:38.716Z,9.33
2018-11-05T21:18:08.825Z,9.29
2018-11-05T21:23:28.956Z,8.78
2018-11-05T21:25:57.604Z,8.88
2018-11-05T21:28:25.102Z,8.94
2018-11-05T21:30:54.232Z,8.89
2018-11-05T21:33:22.503Z,8.86
2018-11-05T21:35:49.840Z,8.85
2018-11-05T21:38:18.037Z,8.89
2018-11-05T21:40:47.623Z,8.87
2018-11-05T21:43:16.005Z,8.83
2018-11-05T21:45:45.600Z,8.80
2018-11-05T21:48:13.457Z,8.74
2018-11-05T21:50:40.714Z,8.67
2018-11-05T21:53:11.195Z,8.68
2018-11-05T21:55:39.368Z,8.57
2018-11-05T21:58:06.644Z,8.67
2018-11-05T22:00:34.334Z,8.75
2018-11-05T22:03:03.994Z,8.73
2018-11-05T22:05:31.630Z,8.56
2018-11-05T22:07:59.024Z,8.40
2018-11-05T22:10:26.326Z,8.41
2018-11-05T22:12:53.714Z,8.43
2018-11-05T22:15:21.218Z,8.46
2018-11-05T22:17:50.255Z,8.47
2018-11-05T22:20:18.545Z,8.41
2018-11-05T22:22:46.124Z,8.46
2018-11-05T22:25:15.805Z,8.41
2018-11-05T22:27:43.542Z,8.46
2018-11-05T22:30:11.422Z,8.47
2018-11-05T22:32:39.177Z,8.46
2018-11-05T22:35:08.192Z,8.41
2018-11-05T22:37:36.663Z,8.42
2018-11-05T22:40:07.083Z,8.44
2018-11-05T22:42:35.256Z,8.46
2018-11-05T22:45:02.679Z,8.39
2018-11-05T22:47:32.307Z,8.33
2018-11-05T22:50:01.849Z,8.37
2018-11-05T22:52:29.560Z,8.41
2018-11-05T22:55:08.430Z,8.33
2018-11-05T22:57:39.816Z,8.25
2018-11-05T23:00:26.660Z,8.28
2018-11-05T23:03:01.671Z,8.33
2018-11-05T23:05:31.369Z,8.31
2018-11-05T23:07:58.838Z,8.30
2018-11-05T23:10:27.666Z,8.28
2018-11-05T23:12:55.043Z,8.33
2018-11-05T23:15:22.393Z,8.31
2018-11-05T23:17:50.110Z,8.26
2018-11-05T23:20:17.456Z,8.20
2018-11-05T23:22:44.927Z,8.28
2018-11-05T23:25:13.062Z,8.28
2018-11-05T23:27:40.653Z,8.30
2018-11-05T23:30:09.436Z,8.29
2018-11-05T23:32:37.629Z,8.26
2018-11-05T23:35:06.033Z,8.27
2018-11-05T23:37:33.310Z,8.21
2018-11-05T23:40:00.774Z,8.16
2018-11-05T23:42:28.198Z,8.18
2018-11-05T23:44:55.576Z,8.09
2018-11-05T23:47:27.969Z,8.11
2018-11-05T23:49:55.565Z,8.05
2018-11-05T23:52:25.441Z,8.09
2018-11-05T23:54:52.963Z,8.06
2018-11-05T23:57:22.581Z,8.03
2018-11-05T23:59:50.599Z,8.05
